Time;durP1;ratioP1;P1;durP2;ratioP2;P2;SDS_P1;SDS_P2;PMS_P1;PMS_P2;Temp;Humidity;BMP_temperature;BMP_pressure;BME280_temperature;BME280_humidity;BME280_pressure;Samples;Min_cycle;Max_cycle;Signal;HPM_P1;HPM_P2
2022/06/09 00:01:54;;;;;;;;;;;21.70;56.10;;;;;;483974;246;1200;-41
2022/06/09 00:03:54;;;;;;;;;;;21.70;56.10;;;;;;484034;246;2421;-41
2022/06/09 00:05:56;;;;;;;;;;;21.70;56.10;;;;;;484049;246;1284;-41
2022/06/09 00:07:57;;;;;;;;;;;21.70;56.10;;;;;;484018;246;1212;-41
2022/06/09 00:09:58;;;;;;;;;;;21.70;56.20;;;;;;484110;246;1272;-41
2022/06/09 00:12:00;;;;;;;;;;;21.70;56.10;;;;;;484122;246;1107;-41
2022/06/09 00:14:01;;;;;;;;;;;21.70;56.20;;;;;;484128;246;2184;-41
2022/06/09 00:16:03;;;;;;;;;;;21.70;56.10;;;;;;484093;246;1294;-41
2022/06/09 00:18:04;;;;;;;;;;;21.70;56.20;;;;;;484305;246;1339;-42
2022/06/09 00:20:05;;;;;;;;;;;21.70;56.20;;;;;;484098;246;1374;-41
2022/06/09 00:22:07;;;;;;;;;;;21.70;56.10;;;;;;483945;246;1149;-41
2022/06/09 00:24:08;;;;;;;;;;;21.70;56.20;;;;;;483947;246;1249;-41
2022/06/09 00:26:09;;;;;;;;;;;21.70;56.10;;;;;;484192;246;1392;-42
2022/06/09 00:28:11;;;;;;;;;;;21.70;56.10;;;;;;484094;246;1267;-41
2022/06/09 00:30:12;;;;;;;;;;;21.70;56.20;;;;;;484181;246;1261;-41
2022/06/09 00:32:13;;;;;;;;;;;21.70;56.00;;;;;;484133;246;1317;-41
2022/06/09 00:34:15;;;;;;;;;;;21.70;56.00;;;;;;483996;246;2188;-41
2022/06/09 00:36:16;;;;;;;;;;;21.70;56.00;;;;;;484052;246;1636;-41
2022/06/09 00:38:18;;;;;;;;;;;21.70;56.10;;;;;;484123;246;1377;-41
2022/06/09 00:40:19;;;;;;;;;;;21.70;56.00;;;;;;484081;246;1320;-41
2022/06/09 00:42:20;;;;;;;;;;;21.70;56.00;;;;;;484154;246;1180;-42
2022/06/09 00:44:21;;;;;;;;;;;21.70;56.10;;;;;;483795;246;1179;-41
2022/06/09 00:46:23;;;;;;;;;;;21.70;56.10;;;;;;484070;246;1397;-41
2022/06/09 00:48:24;;;;;;;;;;;21.80;56.00;;;;;;484059;246;1240;-41
2022/06/09 00:50:25;;;;;;;;;;;21.80;56.00;;;;;;484061;246;1343;-41
2022/06/09 00:52:28;;;;;;;;;;;21.70;56.00;;;;;;484014;246;1192;-41
2022/06/09 00:54:28;;;;;;;;;;;21.70;56.10;;;;;;483964;246;2350;-42
2022/06/09 00:56:30;;;;;;;;;;;21.70;56.10;;;;;;484451;246;1223;-41
2022/06/09 00:58:31;;;;;;;;;;;21.70;56.10;;;;;;483971;246;1341;-41
2022/06/09 01:00:32;;;;;;;;;;;21.80;56.00;;;;;;484193;246;1301;-41
2022/06/09 01:02:33;;;;;;;;;;;21.80;56.00;;;;;;484088;246;1196;-41
2022/06/09 01:04:35;;;;;;;;;;;21.80;56.00;;;;;;484427;246;1266;-41
2022/06/09 01:06:36;;;;;;;;;;;21.80;55.90;;;;;;484062;246;1549;-41
2022/06/09 01:08:37;;;;;;;;;;;21.80;56.00;;;;;;484115;246;1256;-41
2022/06/09 01:10:39;;;;;;;;;;;21.80;56.00;;;;;;484135;246;1297;-41
2022/06/09 01:12:40;;;;;;;;;;;21.80;55.90;;;;;;484085;246;1310;-41
2022/06/09 01:14:41;;;;;;;;;;;21.80;55.90;;;;;;484166;246;2128;-41
2022/06/09 01:16:43;;;;;;;;;;;21.80;56.00;;;;;;484101;246;1208;-41
2022/06/09 01:18:44;;;;;;;;;;;21.70;56.00;;;;;;484145;246;1283;-41
2022/06/09 01:20:45;;;;;;;;;;;21.70;56.00;;;;;;484360;246;1604;-41
2022/06/09 01:22:47;;;;;;;;;;;21.80;56.00;;;;;;484188;246;1318;-41
2022/06/09 01:24:48;;;;;;;;;;;21.70;56.10;;;;;;484161;246;1399;-41
2022/06/09 01:26:49;;;;;;;;;;;21.70;56.10;;;;;;484077;246;1279;-41
2022/06/09 01:28:51;;;;;;;;;;;21.80;56.10;;;;;;484076;246;1281;-41
2022/06/09 01:30:52;;;;;;;;;;;21.80;55.90;;;;;;484158;246;1083;-41
2022/06/09 01:32:54;;;;;;;;;;;21.80;55.80;;;;;;484117;246;1243;-42
2022/06/09 01:34:55;;;;;;;;;;;21.80;55.90;;;;;;484161;246;2192;-41
2022/06/09 01:36:57;;;;;;;;;;;21.80;56.00;;;;;;484271;246;1185;-41
2022/06/09 01:39:02;;;;;;;;;;;21.80;56.10;;;;;;484036;246;1022;-41
2022/06/09 01:41:00;;;;;;;;;;;21.80;56.10;;;;;;483657;246;2066;-41
2022/06/09 01:43:02;;;;;;;;;;;21.80;56.10;;;;;;484140;246;1170;-41
2022/06/09 01:45:02;;;;;;;;;;;21.80;56.00;;;;;;483980;246;1382;-41
2022/06/09 01:47:04;;;;;;;;;;;21.80;56.00;;;;;;484098;246;1195;-41
2022/06/09 01:49:05;;;;;;;;;;;21.80;56.10;;;;;;484186;246;1242;-41
2022/06/09 01:51:06;;;;;;;;;;;21.70;56.10;;;;;;484144;246;1161;-41
2022/06/09 01:53:10;;;;;;;;;;;21.70;56.10;;;;;;484166;246;1318;-41
2022/06/09 01:55:10;;;;;;;;;;;21.80;56.10;;;;;;483976;246;2192;-41
2022/06/09 01:57:11;;;;;;;;;;;21.80;56.10;;;;;;484152;246;1147;-41
2022/06/09 01:59:12;;;;;;;;;;;21.80;56.00;;;;;;484444;246;1232;-41
2022/06/09 02:01:14;;;;;;;;;;;21.80;56.00;;;;;;484091;246;1241;-41
2022/06/09 02:03:15;;;;;;;;;;;21.80;56.10;;;;;;484088;246;1267;-41
2022/06/09 02:05:16;;;;;;;;;;;21.70;56.10;;;;;;484117;246;1330;-42
2022/06/09 02:07:18;;;;;;;;;;;21.70;56.10;;;;;;483997;246;1205;-41
2022/06/09 02:09:19;;;;;;;;;;;21.70;56.00;;;;;;484135;246;1348;-41
2022/06/09 02:11:21;;;;;;;;;;;21.70;56.00;;;;;;484061;246;1303;-41
2022/06/09 02:13:22;;;;;;;;;;;21.80;56.10;;;;;;484225;246;1224;-41
2022/06/09 02:15:23;;;;;;;;;;;21.70;56.10;;;;;;484117;246;2117;-41
2022/06/09 02:17:24;;;;;;;;;;;21.70;56.10;;;;;;484176;246;1239;-41
2022/06/09 02:19:26;;;;;;;;;;;21.70;56.20;;;;;;484071;246;1280;-41
2022/06/09 02:21:27;;;;;;;;;;;21.70;56.20;;;;;;484062;246;1488;-41
2022/06/09 02:23:29;;;;;;;;;;;21.70;56.20;;;;;;484001;246;1253;-41
2022/06/09 02:25:30;;;;;;;;;;;21.70;56.20;;;;;;484091;245;1312;-41
2022/06/09 02:27:31;;;;;;;;;;;21.70;56.20;;;;;;483979;246;1383;-41
2022/06/09 02:29:33;;;;;;;;;;;21.70;56.30;;;;;;484122;246;1567;-41
2022/06/09 02:31:34;;;;;;;;;;;21.70;56.20;;;;;;484013;246;1356;-41
2022/06/09 02:33:35;;;;;;;;;;;21.70;56.20;;;;;;484088;246;1340;-42
2022/06/09 02:35:37;;;;;;;;;;;21.70;56.20;;;;;;484233;246;2199;-41
2022/06/09 02:37:38;;;;;;;;;;;21.70;56.20;;;;;;483976;246;1274;-41
2022/06/09 02:39:39;;;;;;;;;;;21.70;56.10;;;;;;484038;246;1194;-41
2022/06/09 02:41:41;;;;;;;;;;;21.70;56.10;;;;;;484081;246;1203;-41
2022/06/09 02:43:42;;;;;;;;;;;21.70;56.10;;;;;;484102;246;1155;-41
2022/06/09 02:45:43;;;;;;;;;;;21.70;56.20;;;;;;484439;246;1202;-41
2022/06/09 02:47:45;;;;;;;;;;;21.70;56.20;;;;;;484196;246;1233;-41
2022/06/09 02:49:46;;;;;;;;;;;21.70;56.20;;;;;;484009;246;1116;-41
2022/06/09 02:51:47;;;;;;;;;;;21.60;56.20;;;;;;484215;246;1208;-41
2022/06/09 02:53:49;;;;;;;;;;;21.60;56.20;;;;;;484104;246;1088;-41
2022/06/09 02:55:50;;;;;;;;;;;21.70;56.20;;;;;;484167;246;2125;-42
2022/06/09 02:57:51;;;;;;;;;;;21.70;56.20;;;;;;484025;246;1343;-41
2022/06/09 02:59:53;;;;;;;;;;;21.70;56.20;;;;;;484015;246;2942;-41
2022/06/09 03:01:54;;;;;;;;;;;21.70;56.20;;;;;;484031;246;1433;-42
2022/06/09 03:03:55;;;;;;;;;;;21.70;56.20;;;;;;484139;246;1116;-41
2022/06/09 03:05:57;;;;;;;;;;;21.70;56.10;;;;;;484179;246;1202;-41
2022/06/09 03:07:58;;;;;;;;;;;21.70;56.20;;;;;;484315;246;1255;-41
2022/06/09 03:09:59;;;;;;;;;;;21.60;56.20;;;;;;484125;246;1384;-41
2022/06/09 03:12:01;;;;;;;;;;;21.70;56.20;;;;;;484085;246;1190;-41
2022/06/09 03:14:02;;;;;;;;;;;21.70;56.20;;;;;;484149;246;1192;-41
2022/06/09 03:16:03;;;;;;;;;;;21.70;56.30;;;;;;484180;246;2184;-41
2022/06/09 03:18:05;;;;;;;;;;;21.70;56.20;;;;;;484083;246;1503;-41
2022/06/09 03:20:06;;;;;;;;;;;21.70;56.20;;;;;;484102;246;1240;-41
2022/06/09 03:22:07;;;;;;;;;;;21.70;56.10;;;;;;483970;246;1209;-41
2022/06/09 03:24:09;;;;;;;;;;;21.70;56.00;;;;;;484021;246;1424;-41
2022/06/09 03:26:10;;;;;;;;;;;21.80;56.00;;;;;;484274;246;1456;-41
2022/06/09 03:28:11;;;;;;;;;;;21.70;56.10;;;;;;483812;246;1531;-41
2022/06/09 03:30:13;;;;;;;;;;;21.70;56.00;;;;;;484019;246;1313;-41
2022/06/09 03:32:14;;;;;;;;;;;21.70;56.20;;;;;;484034;246;1300;-41
2022/06/09 03:34:15;;;;;;;;;;;21.70;56.10;;;;;;484141;246;1262;-41
2022/06/09 03:36:17;;;;;;;;;;;21.70;56.20;;;;;;484316;246;2128;-41
2022/06/09 03:38:18;;;;;;;;;;;21.70;56.10;;;;;;484138;246;1164;-41
2022/06/09 03:40:19;;;;;;;;;;;21.70;56.20;;;;;;484252;246;1041;-41
2022/06/09 03:42:21;;;;;;;;;;;21.70;56.10;;;;;;484216;246;1223;-41
2022/06/09 03:44:22;;;;;;;;;;;21.70;56.10;;;;;;484208;246;1214;-41
2022/06/09 03:46:24;;;;;;;;;;;21.70;56.20;;;;;;484080;246;1249;-41
2022/06/09 03:48:25;;;;;;;;;;;21.70;56.20;;;;;;484242;246;1173;-41
2022/06/09 03:50:26;;;;;;;;;;;21.60;56.20;;;;;;484216;246;1220;-41
2022/06/09 03:52:28;;;;;;;;;;;21.70;56.30;;;;;;484101;246;1329;-41
2022/06/09 03:54:29;;;;;;;;;;;21.60;56.20;;;;;;484570;246;1279;-41
2022/06/09 03:56:30;;;;;;;;;;;21.60;56.30;;;;;;484001;246;2190;-41
2022/06/09 03:58:32;;;;;;;;;;;21.70;56.20;;;;;;484044;246;1209;-41
2022/06/09 04:00:33;;;;;;;;;;;21.60;56.30;;;;;;484234;246;1238;-41
2022/06/09 04:02:34;;;;;;;;;;;21.60;56.30;;;;;;484160;246;1203;-41
2022/06/09 04:04:36;;;;;;;;;;;21.70;56.30;;;;;;484238;246;1135;-41
2022/06/09 04:06:37;;;;;;;;;;;21.60;56.30;;;;;;484273;246;1341;-41
2022/06/09 04:08:39;;;;;;;;;;;21.60;56.30;;;;;;484069;246;1186;-41
2022/06/09 04:10:40;;;;;;;;;;;21.70;56.30;;;;;;484042;246;1382;-41
2022/06/09 04:12:41;;;;;;;;;;;21.60;56.20;;;;;;483997;246;1207;-41
2022/06/09 04:14:43;;;;;;;;;;;21.60;56.20;;;;;;484006;246;2105;-42
2022/06/09 04:16:44;;;;;;;;;;;21.70;56.20;;;;;;484004;246;1339;-41
2022/06/09 04:18:46;;;;;;;;;;;21.70;56.30;;;;;;484058;246;1145;-41
2022/06/09 04:20:47;;;;;;;;;;;21.60;56.20;;;;;;484207;246;1157;-42
2022/06/09 04:22:48;;;;;;;;;;;21.70;56.20;;;;;;484402;246;1348;-41
2022/06/09 04:24:50;;;;;;;;;;;21.60;56.20;;;;;;483989;246;1225;-41
2022/06/09 04:26:51;;;;;;;;;;;21.70;56.20;;;;;;483928;246;1362;-41
2022/06/09 04:28:52;;;;;;;;;;;21.70;56.00;;;;;;483919;246;1282;-41
2022/06/09 04:30:54;;;;;;;;;;;21.60;56.20;;;;;;483964;246;1299;-41
2022/06/09 04:32:55;;;;;;;;;;;21.70;56.20;;;;;;484206;246;1218;-41
2022/06/09 04:34:56;;;;;;;;;;;21.70;56.20;;;;;;483951;246;2207;-41
2022/06/09 04:36:58;;;;;;;;;;;21.70;56.20;;;;;;483926;246;1334;-41
2022/06/09 04:38:59;;;;;;;;;;;21.60;56.20;;;;;;483992;246;1087;-41
2022/06/09 04:41:01;;;;;;;;;;;21.60;56.30;;;;;;483998;246;1133;-42
2022/06/09 04:43:02;;;;;;;;;;;21.70;56.30;;;;;;483921;246;1142;-41
2022/06/09 04:45:03;;;;;;;;;;;21.60;56.20;;;;;;484037;246;1076;-41
2022/06/09 04:47:04;;;;;;;;;;;21.70;56.20;;;;;;483941;246;1061;-42
2022/06/09 04:49:06;;;;;;;;;;;21.70;56.10;;;;;;483638;246;1231;-41
2022/06/09 04:51:07;;;;;;;;;;;21.70;56.10;;;;;;483761;246;1255;-41
2022/06/09 04:53:09;;;;;;;;;;;21.80;56.10;;;;;;483964;246;1172;-41
2022/06/09 04:55:10;;;;;;;;;;;21.80;56.00;;;;;;483932;246;2124;-42
2022/06/09 04:57:12;;;;;;;;;;;21.80;56.10;;;;;;483612;246;1143;-41
2022/06/09 04:59:13;;;;;;;;;;;21.80;56.00;;;;;;484084;246;1219;-41
2022/06/09 05:01:15;;;;;;;;;;;21.80;56.00;;;;;;484167;246;1273;-41
2022/06/09 05:03:16;;;;;;;;;;;21.80;55.90;;;;;;483960;246;1185;-41
2022/06/09 05:05:18;;;;;;;;;;;21.80;56.10;;;;;;484106;246;1187;-42
2022/06/09 05:07:19;;;;;;;;;;;21.80;55.90;;;;;;483823;246;1232;-41
2022/06/09 05:09:20;;;;;;;;;;;21.80;55.90;;;;;;483961;246;1297;-41
2022/06/09 05:11:22;;;;;;;;;;;21.80;56.10;;;;;;483825;246;1274;-41
2022/06/09 05:13:23;;;;;;;;;;;21.80;56.00;;;;;;483730;246;1229;-41
2022/06/09 05:15:24;;;;;;;;;;;21.80;56.00;;;;;;483826;246;2191;-41
2022/06/09 05:17:26;;;;;;;;;;;21.80;56.10;;;;;;483788;246;1280;-41
2022/06/09 05:19:27;;;;;;;;;;;21.80;56.10;;;;;;483886;246;1204;-42
2022/06/09 05:21:28;;;;;;;;;;;21.80;56.00;;;;;;483804;246;1299;-42
2022/06/09 05:23:30;;;;;;;;;;;21.80;56.10;;;;;;483825;246;1259;-42
2022/06/09 05:25:31;;;;;;;;;;;21.80;56.00;;;;;;483836;246;1121;-42
2022/06/09 05:27:32;;;;;;;;;;;21.70;56.10;;;;;;483845;246;1192;-42
2022/06/09 05:29:34;;;;;;;;;;;21.80;56.10;;;;;;484002;246;1088;-42
2022/06/09 05:31:35;;;;;;;;;;;21.80;56.10;;;;;;483841;246;1093;-42
2022/06/09 05:33:37;;;;;;;;;;;21.80;56.10;;;;;;483866;246;1077;-41
2022/06/09 05:35:38;;;;;;;;;;;21.80;56.20;;;;;;483879;246;2180;-42
2022/06/09 05:44:52;;;;;;;;;;;21.80;56.10;;;;;;467599;254;1241;-42
2022/06/09 05:46:53;;;;;;;;;;;21.80;56.00;;;;;;482807;246;1273;-42
2022/06/09 05:48:54;;;;;;;;;;;21.80;56.00;;;;;;483616;246;1166;-42
2022/06/09 05:50:55;;;;;;;;;;;21.80;56.10;;;;;;483632;246;1304;-41
2022/06/09 05:52:57;;;;;;;;;;;21.80;56.00;;;;;;483779;246;1263;-41
2022/06/09 05:54:58;;;;;;;;;;;21.80;56.00;;;;;;483628;246;1152;-42
2022/06/09 05:57:00;;;;;;;;;;;21.70;56.10;;;;;;483637;246;2169;-42
2022/06/09 05:59:01;;;;;;;;;;;21.70;56.10;;;;;;483700;246;1840;-42
2022/06/09 06:01:02;;;;;;;;;;;21.80;56.10;;;;;;483689;246;1265;-42
2022/06/09 06:03:03;;;;;;;;;;;21.80;56.10;;;;;;483704;246;1303;-41
2022/06/09 06:06:33;;;;;;;;;;;21.80;56.20;;;;;;483619;246;1114;-42
2022/06/09 06:07:06;;;;;;;;;;;21.70;56.20;;;;;;482164;246;1965;-42
2022/06/09 06:09:08;;;;;;;;;;;21.80;56.30;;;;;;483461;246;1242;-42
2022/06/09 06:11:09;;;;;;;;;;;21.80;56.10;;;;;;483611;246;1641;-42
2022/06/09 06:13:12;;;;;;;;;;;21.80;56.10;;;;;;483727;246;1191;-42
2022/06/09 06:15:12;;;;;;;;;;;21.80;56.00;;;;;;483628;246;2009;-42
2022/06/09 06:17:13;;;;;;;;;;;21.90;56.00;;;;;;483422;246;2194;-41
2022/06/09 06:19:16;;;;;;;;;;;21.80;56.00;;;;;;483481;246;1085;-42
2022/06/09 06:21:16;;;;;;;;;;;21.80;56.10;;;;;;483355;246;1559;-42
2022/06/09 06:23:17;;;;;;;;;;;21.80;56.10;;;;;;483342;246;1208;-42
2022/06/09 06:25:19;;;;;;;;;;;21.80;56.10;;;;;;483432;246;1254;-42
2022/06/09 06:27:20;;;;;;;;;;;21.90;56.10;;;;;;483231;246;1336;-42
2022/06/09 06:29:22;;;;;;;;;;;21.90;56.00;;;;;;483557;246;1198;-41
2022/06/09 06:31:23;;;;;;;;;;;21.80;56.00;;;;;;483231;246;1281;-42
2022/06/09 06:33:24;;;;;;;;;;;21.80;56.00;;;;;;483383;246;1502;-41
2022/06/09 06:35:26;;;;;;;;;;;21.80;56.10;;;;;;483236;246;2199;-42
2022/06/09 06:37:27;;;;;;;;;;;21.90;56.10;;;;;;483121;246;1282;-42
2022/06/09 06:39:28;;;;;;;;;;;21.90;56.00;;;;;;483152;246;1257;-41
2022/06/09 06:41:30;;;;;;;;;;;21.80;56.00;;;;;;483216;246;1307;-42
2022/06/09 06:43:31;;;;;;;;;;;21.90;56.00;;;;;;483081;246;1160;-42
2022/06/09 06:45:33;;;;;;;;;;;21.90;56.10;;;;;;482952;246;2029;-42
2022/06/09 06:47:34;;;;;;;;;;;21.90;56.00;;;;;;483089;246;1379;-42
2022/06/09 06:49:36;;;;;;;;;;;21.80;56.00;;;;;;483218;246;1287;-42
2022/06/09 06:51:37;;;;;;;;;;;21.80;56.00;;;;;;482938;246;1240;-42
2022/06/09 06:53:38;;;;;;;;;;;21.90;56.10;;;;;;483040;246;1150;-42
2022/06/09 06:55:40;;;;;;;;;;;21.80;56.10;;;;;;482917;246;2196;-42
2022/06/09 06:57:41;;;;;;;;;;;21.90;56.10;;;;;;482999;246;1223;-42
2022/06/09 06:59:42;;;;;;;;;;;21.90;56.10;;;;;;483457;246;1169;-42
2022/06/09 07:01:44;;;;;;;;;;;21.90;56.10;;;;;;483865;246;1173;-42
2022/06/09 07:03:45;;;;;;;;;;;21.90;55.90;;;;;;483381;246;1081;-42
2022/06/09 07:05:46;;;;;;;;;;;21.90;55.90;;;;;;483855;246;1015;-42
2022/06/09 07:07:47;;;;;;;;;;;21.90;55.90;;;;;;483667;246;1220;-41
2022/06/09 07:09:49;;;;;;;;;;;21.90;55.90;;;;;;483714;246;1163;-42
2022/06/09 07:11:50;;;;;;;;;;;21.90;56.00;;;;;;483749;246;1105;-42
2022/06/09 07:13:51;;;;;;;;;;;21.90;56.00;;;;;;483479;246;1228;-42
2022/06/09 07:15:53;;;;;;;;;;;21.90;56.10;;;;;;483531;246;2192;-42
2022/06/09 07:17:54;;;;;;;;;;;21.80;56.10;;;;;;483105;246;1229;-42
2022/06/09 07:19:55;;;;;;;;;;;21.80;56.00;;;;;;483553;246;1061;-42
2022/06/09 07:21:58;;;;;;;;;;;21.80;56.00;;;;;;483275;246;1219;-41
2022/06/09 07:23:58;;;;;;;;;;;21.80;56.20;;;;;;483594;246;1328;-42
2022/06/09 07:25:59;;;;;;;;;;;21.90;56.10;;;;;;483917;246;1087;-42
2022/06/09 07:28:01;;;;;;;;;;;21.80;56.20;;;;;;483706;246;1129;-42
2022/06/09 07:30:02;;;;;;;;;;;21.80;56.20;;;;;;483230;246;1170;-41
2022/06/09 07:32:03;;;;;;;;;;;21.80;56.20;;;;;;483309;246;1216;-41
2022/06/09 07:34:05;;;;;;;;;;;21.80;56.20;;;;;;483654;246;1357;-41
2022/06/09 07:36:06;;;;;;;;;;;21.80;56.30;;;;;;483751;246;2190;-42
2022/06/09 07:38:08;;;;;;;;;;;21.80;56.20;;;;;;483302;246;1131;-42
2022/06/09 07:40:10;;;;;;;;;;;21.80;56.20;;;;;;483255;246;2089;-42
2022/06/09 07:42:10;;;;;;;;;;;21.80;56.10;;;;;;482993;246;1499;-42
2022/06/09 07:44:11;;;;;;;;;;;21.80;56.30;;;;;;483112;246;1188;-42
2022/06/09 07:46:13;;;;;;;;;;;21.70;56.20;;;;;;483393;246;1184;-42
2022/06/09 07:48:14;;;;;;;;;;;21.70;56.30;;;;;;483546;246;1056;-42
2022/06/09 07:50:15;;;;;;;;;;;21.80;56.30;;;;;;483070;246;890;-42
2022/06/09 07:52:17;;;;;;;;;;;21.80;56.20;;;;;;483401;246;1218;-42
2022/06/09 07:54:18;;;;;;;;;;;21.80;56.00;;;;;;483763;246;910;-42
2022/06/09 07:56:19;;;;;;;;;;;21.80;56.10;;;;;;483473;246;2183;-42
2022/06/09 07:58:21;;;;;;;;;;;21.90;56.00;;;;;;483824;246;964;-42
2022/06/09 08:00:22;;;;;;;;;;;21.90;55.90;;;;;;483128;246;1160;-41
2022/06/09 08:02:23;;;;;;;;;;;21.90;56.00;;;;;;483392;246;1048;-42
2022/06/09 08:04:25;;;;;;;;;;;21.90;56.00;;;;;;483702;246;1034;-42
2022/06/09 08:06:26;;;;;;;;;;;21.90;56.00;;;;;;483245;246;1183;-42
2022/06/09 08:08:27;;;;;;;;;;;21.90;56.00;;;;;;483095;246;1364;-42
2022/06/09 08:10:29;;;;;;;;;;;21.90;56.00;;;;;;483070;246;1131;-42
2022/06/09 08:12:30;;;;;;;;;;;21.80;56.20;;;;;;483013;246;1045;-42
2022/06/09 08:14:31;;;;;;;;;;;21.80;56.10;;;;;;483254;246;1198;-42
2022/06/09 08:16:33;;;;;;;;;;;21.80;56.10;;;;;;483678;246;2199;-42
2022/06/09 08:18:34;;;;;;;;;;;21.90;55.90;;;;;;483300;246;1169;-42
2022/06/09 08:20:35;;;;;;;;;;;21.90;55.80;;;;;;483906;246;1123;-42
2022/06/09 08:22:40;;;;;;;;;;;21.90;55.90;;;;;;483909;246;1147;-42
2022/06/09 08:24:39;;;;;;;;;;;21.90;56.00;;;;;;483611;246;2090;-42
2022/06/09 08:26:40;;;;;;;;;;;21.90;56.00;;;;;;483718;246;1281;-42
2022/06/09 08:28:42;;;;;;;;;;;21.80;56.00;;;;;;483418;246;1376;-42
2022/06/09 08:30:43;;;;;;;;;;;21.90;55.90;;;;;;483575;246;1128;-42
2022/06/09 08:32:44;;;;;;;;;;;21.90;55.80;;;;;;483175;246;1277;-42
2022/06/09 08:34:46;;;;;;;;;;;21.90;55.80;;;;;;483050;246;1212;-42
2022/06/09 08:36:47;;;;;;;;;;;21.90;55.70;;;;;;483065;246;2191;-41
2022/06/09 08:38:48;;;;;;;;;;;21.90;55.80;;;;;;483378;246;1273;-42
2022/06/09 08:40:50;;;;;;;;;;;21.90;55.80;;;;;;483614;246;1321;-42
2022/06/09 08:42:51;;;;;;;;;;;21.90;55.80;;;;;;483837;246;1232;-42
2022/06/09 08:44:52;;;;;;;;;;;22.00;55.70;;;;;;483737;246;1091;-42
2022/06/09 08:46:54;;;;;;;;;;;22.00;55.70;;;;;;483317;246;1114;-42
2022/06/09 08:48:55;;;;;;;;;;;22.00;55.80;;;;;;483458;246;1168;-42
2022/06/09 08:50:57;;;;;;;;;;;22.00;55.70;;;;;;483459;246;1282;-42
2022/06/09 08:52:58;;;;;;;;;;;22.00;55.70;;;;;;483226;246;1094;-42
2022/06/09 08:54:59;;;;;;;;;;;22.00;55.70;;;;;;483306;246;1143;-41
2022/06/09 08:57:01;;;;;;;;;;;22.00;55.60;;;;;;482957;246;2180;-41
2022/06/09 08:59:03;;;;;;;;;;;22.00;55.60;;;;;;483517;246;1188;-42
2022/06/09 09:01:04;;;;;;;;;;;22.00;55.60;;;;;;483091;246;1144;-41
2022/06/09 09:03:06;;;;;;;;;;;22.00;55.50;;;;;;482626;246;1115;-41
2022/06/09 09:05:07;;;;;;;;;;;21.90;55.60;;;;;;483077;246;1107;-42
2022/06/09 09:07:08;;;;;;;;;;;22.00;55.60;;;;;;482557;246;1051;-42
2022/06/09 09:09:10;;;;;;;;;;;22.00;55.60;;;;;;483277;246;1128;-41
2022/06/09 09:11:11;;;;;;;;;;;22.00;55.60;;;;;;483398;246;1197;-42
2022/06/09 09:13:12;;;;;;;;;;;22.00;55.50;;;;;;483834;246;1220;-42
2022/06/09 09:15:14;;;;;;;;;;;22.00;55.50;;;;;;483361;245;1084;-41
2022/06/09 09:17:15;;;;;;;;;;;22.00;55.40;;;;;;483210;246;2192;-42
2022/06/09 09:19:16;;;;;;;;;;;22.00;55.60;;;;;;483438;246;1468;-42
2022/06/09 09:21:18;;;;;;;;;;;22.00;55.50;;;;;;484017;246;1125;-41
2022/06/09 09:23:19;;;;;;;;;;;22.10;55.40;;;;;;483861;246;1199;-42
2022/06/09 09:25:20;;;;;;;;;;;22.10;55.40;;;;;;483046;246;1134;-42
2022/06/09 09:27:22;;;;;;;;;;;22.10;55.40;;;;;;483075;246;1173;-42
2022/06/09 09:29:23;;;;;;;;;;;22.10;55.50;;;;;;483774;246;1310;-41
2022/06/09 09:31:24;;;;;;;;;;;22.00;55.50;;;;;;483389;246;1301;-42
2022/06/09 09:33:26;;;;;;;;;;;22.10;55.40;;;;;;483492;246;1133;-42
2022/06/09 09:35:27;;;;;;;;;;;22.00;55.40;;;;;;483946;246;1235;-42
2022/06/09 09:37:28;;;;;;;;;;;22.00;55.50;;;;;;483081;246;2183;-42
2022/06/09 09:39:30;;;;;;;;;;;22.00;55.50;;;;;;483166;246;1311;-41
2022/06/09 09:41:32;;;;;;;;;;;22.10;55.40;;;;;;483011;246;1219;-42
2022/06/09 09:43:33;;;;;;;;;;;22.10;55.40;;;;;;482615;246;1171;-42
2022/06/09 09:45:35;;;;;;;;;;;22.10;55.50;;;;;;482517;246;1230;-42
2022/06/09 09:47:36;;;;;;;;;;;22.00;55.50;;;;;;482505;246;1277;-42
2022/06/09 09:49:38;;;;;;;;;;;22.10;55.50;;;;;;482662;246;1368;-41
2022/06/09 09:51:39;;;;;;;;;;;22.10;55.60;;;;;;482789;246;1954;-42
2022/06/09 09:53:40;;;;;;;;;;;22.00;55.50;;;;;;483128;246;1365;-42
2022/06/09 09:55:41;;;;;;;;;;;22.00;55.50;;;;;;483632;246;1084;-42
2022/06/09 09:57:42;;;;;;;;;;;22.00;55.50;;;;;;483088;246;2184;-41
2022/06/09 09:59:45;;;;;;;;;;;22.10;55.60;;;;;;482885;246;1272;-41
2022/06/09 10:08:45;;;;;;;;;;;22.00;55.60;;;;;;483093;246;1111;-41
2022/06/09 10:10:46;;;;;;;;;;;22.00;55.70;;;;;;483196;246;1231;-42
2022/06/09 10:12:48;;;;;;;;;;;22.00;55.70;;;;;;483172;246;1513;-42
2022/06/09 10:14:49;;;;;;;;;;;22.00;55.70;;;;;;483124;246;1228;-42
2022/06/09 10:16:50;;;;;;;;;;;22.00;55.80;;;;;;483128;246;2185;-42
2022/06/09 10:18:52;;;;;;;;;;;22.00;55.80;;;;;;483017;246;1229;-42
2022/06/09 10:20:53;;;;;;;;;;;22.00;55.80;;;;;;483120;246;1527;-42
2022/06/09 10:22:54;;;;;;;;;;;22.00;55.80;;;;;;483231;246;1772;-42
2022/06/09 10:24:56;;;;;;;;;;;22.00;55.70;;;;;;483102;246;1249;-41
2022/06/09 10:26:57;;;;;;;;;;;22.00;55.80;;;;;;483231;246;1342;-42
2022/06/09 10:28:59;;;;;;;;;;;22.00;55.80;;;;;;483100;246;1191;-42
2022/06/09 10:31:00;;;;;;;;;;;22.00;55.90;;;;;;482912;246;1276;-41
2022/06/09 10:33:01;;;;;;;;;;;21.90;55.70;;;;;;483081;246;1271;-42
2022/06/09 10:35:03;;;;;;;;;;;22.00;55.80;;;;;;483070;246;1263;-42
2022/06/09 10:37:04;;;;;;;;;;;22.00;55.70;;;;;;483097;246;2187;-42
2022/06/09 10:39:05;;;;;;;;;;;22.00;55.70;;;;;;483111;246;1335;-42
2022/06/09 10:41:07;;;;;;;;;;;22.00;55.80;;;;;;483223;246;1330;-42
2022/06/09 10:43:08;;;;;;;;;;;22.00;55.90;;;;;;483142;246;1138;-42
2022/06/09 10:45:10;;;;;;;;;;;22.00;55.80;;;;;;483021;246;1261;-42
2022/06/09 10:56:47;;;;;;;;;;;22.00;55.90;;;;;;483020;246;1307;-42
2022/06/09 10:58:48;;;;;;;;;;;22.00;55.80;;;;;;483103;246;2125;-41
2022/06/09 11:00:49;;;;;;;;;;;22.00;55.80;;;;;;483026;244;1244;-42
2022/06/09 11:02:51;;;;;;;;;;;22.00;55.80;;;;;;482561;246;1240;-42
2022/06/09 11:04:52;;;;;;;;;;;22.00;55.90;;;;;;482783;246;1157;-42
2022/06/09 11:06:53;;;;;;;;;;;22.00;55.80;;;;;;482649;246;1336;-42
2022/06/09 11:08:55;;;;;;;;;;;22.00;55.80;;;;;;483547;246;1185;-42
2022/06/09 11:10:56;;;;;;;;;;;22.00;55.70;;;;;;483992;246;1117;-42
2022/06/09 11:12:57;;;;;;;;;;;22.00;55.70;;;;;;483964;246;1276;-42
2022/06/09 11:14:59;;;;;;;;;;;22.00;55.70;;;;;;483539;246;1121;-42
2022/06/09 11:17:00;;;;;;;;;;;21.90;55.70;;;;;;483562;246;1220;-42
2022/06/09 11:19:02;;;;;;;;;;;22.00;55.80;;;;;;483637;246;2187;-42
2022/06/09 11:21:03;;;;;;;;;;;22.00;55.80;;;;;;482910;246;1261;-41
2022/06/09 11:23:05;;;;;;;;;;;22.00;55.80;;;;;;483460;246;1244;-42
2022/06/09 11:25:06;;;;;;;;;;;22.00;55.80;;;;;;483245;246;1234;-42
2022/06/09 11:27:07;;;;;;;;;;;22.00;55.80;;;;;;483312;246;1223;-42
2022/06/09 11:29:09;;;;;;;;;;;22.00;55.80;;;;;;484037;246;1368;-42
2022/06/09 11:31:10;;;;;;;;;;;22.00;55.80;;;;;;483788;246;1139;-42
2022/06/09 11:33:11;;;;;;;;;;;21.90;55.80;;;;;;483583;246;1293;-42
2022/06/09 11:35:13;;;;;;;;;;;21.90;55.90;;;;;;483527;246;1087;-42
2022/06/09 11:37:14;;;;;;;;;;;22.00;55.90;;;;;;483480;246;2203;-42
2022/06/09 11:39:17;;;;;;;;;;;22.00;55.80;;;;;;483306;246;1201;-42
2022/06/09 11:41:17;;;;;;;;;;;22.00;55.80;;;;;;483223;246;2414;-41
2022/06/09 11:43:19;;;;;;;;;;;22.00;55.80;;;;;;483073;246;1239;-42
2022/06/09 11:45:20;;;;;;;;;;;22.00;55.80;;;;;;483023;246;1072;-42
2022/06/09 11:47:21;;;;;;;;;;;22.00;55.90;;;;;;482868;246;1335;-42
2022/06/09 11:49:22;;;;;;;;;;;22.00;55.80;;;;;;483181;246;1539;-42
2022/06/09 11:51:24;;;;;;;;;;;21.90;55.80;;;;;;483749;246;1339;-42
2022/06/09 11:53:25;;;;;;;;;;;22.00;55.80;;;;;;484033;246;1044;-42
2022/06/09 11:55:27;;;;;;;;;;;22.00;55.70;;;;;;483378;246;876;-42
2022/06/09 11:57:28;;;;;;;;;;;22.00;55.70;;;;;;483432;246;2208;-42
2022/06/09 11:59:30;;;;;;;;;;;22.00;55.70;;;;;;483453;246;926;-42
2022/06/09 12:01:31;;;;;;;;;;;21.90;55.80;;;;;;483571;246;1279;-42
2022/06/09 12:03:33;;;;;;;;;;;21.90;55.90;;;;;;483047;246;1150;-42
2022/06/09 12:05:34;;;;;;;;;;;21.90;55.80;;;;;;482204;246;1230;-42
2022/06/09 12:07:35;;;;;;;;;;;21.90;55.80;;;;;;482322;246;1159;-42
2022/06/09 12:09:37;;;;;;;;;;;22.00;55.80;;;;;;482416;246;1197;-42
2022/06/09 12:11:38;;;;;;;;;;;22.00;55.80;;;;;;482789;246;1263;-42
2022/06/09 12:13:40;;;;;;;;;;;22.00;55.70;;;;;;483006;246;1262;-42
2022/06/09 12:15:41;;;;;;;;;;;22.00;55.60;;;;;;482983;246;1336;-41
2022/06/09 12:17:42;;;;;;;;;;;22.00;55.70;;;;;;483154;246;2204;-42
2022/06/09 12:19:44;;;;;;;;;;;22.00;55.80;;;;;;482912;246;1378;-42
2022/06/09 12:21:45;;;;;;;;;;;22.00;55.70;;;;;;483350;246;1205;-42